sensor_id;sensor_type;location;lat;lon;timestamp;P1;durP1;ratioP1;P2;durP2;ratioP2
72573;SDS011;60603;52.548;13.420;2022-09-17T00:01:07;5.10;;;1.70;;
72573;SDS011;60603;52.548;13.420;2022-09-17T00:03:34;13.30;;;2.20;;
72573;SDS011;60603;52.548;13.420;2022-09-17T00:06:01;6.95;;;2.35;;
72573;SDS011;60603;52.548;13.420;2022-09-17T00:08:32;6.50;;;2.30;;
72573;SDS011;60603;52.548;13.420;2022-09-17T00:11:06;20.33;;;2.45;;
72573;SDS011;60603;52.548;13.420;2022-09-17T00:13:32;5.00;;;2.10;;
72573;SDS011;60603;52.548;13.420;2022-09-17T00:15:58;9.43;;;2.33;;
72573;SDS011;60603;52.548;13.420;2022-09-17T00:18:24;5.93;;;1.92;;
72573;SDS011;60603;52.548;13.420;2022-09-17T00:20:50;3.67;;;1.75;;
72573;SDS011;60603;52.548;13.420;2022-09-17T00:23:15;4.45;;;1.60;;
72573;SDS011;60603;52.548;13.420;2022-09-17T00:25:42;9.63;;;2.13;;
72573;SDS011;60603;52.548;13.420;2022-09-17T00:28:10;8.00;;;2.33;;
72573;SDS011;60603;52.548;13.420;2022-09-17T00:30:40;11.63;;;2.00;;
72573;SDS011;60603;52.548;13.420;2022-09-17T00:33:06;7.90;;;2.30;;
72573;SDS011;60603;52.548;13.420;2022-09-17T00:35:32;7.40;;;2.38;;
72573;SDS011;60603;52.548;13.420;2022-09-17T00:37:58;7.90;;;2.25;;
72573;SDS011;60603;52.548;13.420;2022-09-17T00:40:24;5.20;;;2.20;;
72573;SDS011;60603;52.548;13.420;2022-09-17T00:42:50;11.05;;;2.28;;
72573;SDS011;60603;52.548;13.420;2022-09-17T00:45:17;9.15;;;2.20;;
72573;SDS011;60603;52.548;13.420;2022-09-17T00:50:18;6.95;;;2.10;;
72573;SDS011;60603;52.548;13.420;2022-09-17T00:52:55;8.27;;;2.80;;
72573;SDS011;60603;52.548;13.420;2022-09-17T00:55:24;9.48;;;2.10;;
72573;SDS011;60603;52.548;13.420;2022-09-17T00:57:53;8.18;;;2.55;;
72573;SDS011;60603;52.548;13.420;2022-09-17T01:00:20;5.53;;;2.22;;
72573;SDS011;60603;52.548;13.420;2022-09-17T01:02:47;8.10;;;2.10;;
72573;SDS011;60603;52.548;13.420;2022-09-17T01:05:13;8.57;;;2.25;;
72573;SDS011;60603;52.548;13.420;2022-09-17T01:21:30;6.35;;;2.00;;
72573;SDS011;60603;52.548;13.420;2022-09-17T01:29:40;4.80;;;1.73;;
72573;SDS011;60603;52.548;13.420;2022-09-17T01:32:23;5.28;;;1.80;;
72573;SDS011;60603;52.548;13.420;2022-09-17T01:35:06;9.07;;;2.22;;
72573;SDS011;60603;52.548;13.420;2022-09-17T01:37:41;9.00;;;2.20;;
72573;SDS011;60603;52.548;13.420;2022-09-17T01:45:29;8.02;;;1.80;;
72573;SDS011;60603;52.548;13.420;2022-09-17T01:51:09;7.93;;;2.72;;
72573;SDS011;60603;52.548;13.420;2022-09-17T01:56:17;4.95;;;2.10;;
72573;SDS011;60603;52.548;13.420;2022-09-17T01:58:48;7.22;;;2.25;;
72573;SDS011;60603;52.548;13.420;2022-09-17T02:01:16;10.18;;;2.17;;
72573;SDS011;60603;52.548;13.420;2022-09-17T02:03:56;6.63;;;2.10;;
72573;SDS011;60603;52.548;13.420;2022-09-17T02:06:28;6.72;;;2.10;;
72573;SDS011;60603;52.548;13.420;2022-09-17T02:09:00;6.05;;;2.22;;
72573;SDS011;60603;52.548;13.420;2022-09-17T02:11:27;7.65;;;2.50;;
72573;SDS011;60603;52.548;13.420;2022-09-17T02:16:24;7.43;;;2.40;;
72573;SDS011;60603;52.548;13.420;2022-09-17T02:19:03;8.50;;;2.38;;
72573;SDS011;60603;52.548;13.420;2022-09-17T02:21:38;10.65;;;2.70;;
72573;SDS011;60603;52.548;13.420;2022-09-17T02:24:13;8.80;;;2.58;;
72573;SDS011;60603;52.548;13.420;2022-09-17T02:27:02;7.85;;;2.85;;
72573;SDS011;60603;52.548;13.420;2022-09-17T02:29:31;10.27;;;2.90;;
72573;SDS011;60603;52.548;13.420;2022-09-17T02:31:59;9.98;;;3.05;;
72573;SDS011;60603;52.548;13.420;2022-09-17T02:34:25;10.43;;;3.20;;
72573;SDS011;60603;52.548;13.420;2022-09-17T02:36:52;12.18;;;4.18;;
72573;SDS011;60603;52.548;13.420;2022-09-17T02:39:18;12.48;;;4.05;;
72573;SDS011;60603;52.548;13.420;2022-09-17T02:42:00;10.77;;;3.95;;
72573;SDS011;60603;52.548;13.420;2022-09-17T02:46:59;12.63;;;5.47;;
72573;SDS011;60603;52.548;13.420;2022-09-17T02:49:58;13.82;;;4.75;;
72573;SDS011;60603;52.548;13.420;2022-09-17T02:55:11;15.25;;;5.68;;
72573;SDS011;60603;52.548;13.420;2022-09-17T02:57:59;13.60;;;5.43;;
72573;SDS011;60603;52.548;13.420;2022-09-17T03:00:29;16.60;;;6.18;;
72573;SDS011;60603;52.548;13.420;2022-09-17T03:02:59;14.82;;;5.57;;
72573;SDS011;60603;52.548;13.420;2022-09-17T03:05:27;13.98;;;5.30;;
72573;SDS011;60603;52.548;13.420;2022-09-17T03:07:54;12.25;;;4.53;;
72573;SDS011;60603;52.548;13.420;2022-09-17T03:10:21;12.95;;;4.43;;
72573;SDS011;60603;52.548;13.420;2022-09-17T03:12:48;13.93;;;3.85;;
72573;SDS011;60603;52.548;13.420;2022-09-17T03:15:14;14.32;;;4.47;;
72573;SDS011;60603;52.548;13.420;2022-09-17T03:17:39;7.47;;;3.97;;
72573;SDS011;60603;52.548;13.420;2022-09-17T03:20:05;9.60;;;4.03;;
72573;SDS011;60603;52.548;13.420;2022-09-17T03:22:31;10.52;;;3.47;;
72573;SDS011;60603;52.548;13.420;2022-09-17T03:24:57;9.27;;;3.63;;
72573;SDS011;60603;52.548;13.420;2022-09-17T03:27:22;11.23;;;3.45;;
72573;SDS011;60603;52.548;13.420;2022-09-17T03:29:48;11.48;;;3.03;;
72573;SDS011;60603;52.548;13.420;2022-09-17T03:32:14;8.23;;;3.03;;
72573;SDS011;60603;52.548;13.420;2022-09-17T03:34:40;15.40;;;3.53;;
72573;SDS011;60603;52.548;13.420;2022-09-17T03:37:05;7.68;;;3.10;;
72573;SDS011;60603;52.548;13.420;2022-09-17T03:39:31;17.92;;;3.53;;
72573;SDS011;60603;52.548;13.420;2022-09-17T03:41:57;8.20;;;3.00;;
72573;SDS011;60603;52.548;13.420;2022-09-17T03:44:22;8.18;;;3.00;;
72573;SDS011;60603;52.548;13.420;2022-09-17T03:46:49;9.57;;;2.83;;
72573;SDS011;60603;52.548;13.420;2022-09-17T03:49:14;8.55;;;3.15;;
72573;SDS011;60603;52.548;13.420;2022-09-17T03:51:40;6.15;;;2.42;;
72573;SDS011;60603;52.548;13.420;2022-09-17T03:54:06;11.00;;;3.50;;
72573;SDS011;60603;52.548;13.420;2022-09-17T03:56:32;8.07;;;2.70;;
72573;SDS011;60603;52.548;13.420;2022-09-17T03:58:58;8.57;;;2.72;;
72573;SDS011;60603;52.548;13.420;2022-09-17T04:01:25;8.13;;;2.40;;
72573;SDS011;60603;52.548;13.420;2022-09-17T04:03:51;8.98;;;2.40;;
72573;SDS011;60603;52.548;13.420;2022-09-17T04:06:17;15.55;;;2.78;;
72573;SDS011;60603;52.548;13.420;2022-09-17T04:08:42;11.93;;;2.80;;
72573;SDS011;60603;52.548;13.420;2022-09-17T04:11:08;6.45;;;2.22;;
72573;SDS011;60603;52.548;13.420;2022-09-17T04:13:34;16.55;;;3.15;;
72573;SDS011;60603;52.548;13.420;2022-09-17T04:16:01;12.15;;;2.95;;
72573;SDS011;60603;52.548;13.420;2022-09-17T04:18:27;10.35;;;2.75;;
72573;SDS011;60603;52.548;13.420;2022-09-17T04:20:53;10.98;;;2.50;;
72573;SDS011;60603;52.548;13.420;2022-09-17T04:23:19;8.93;;;2.88;;
72573;SDS011;60603;52.548;13.420;2022-09-17T04:25:44;9.50;;;2.95;;
72573;SDS011;60603;52.548;13.420;2022-09-17T04:28:10;7.85;;;2.58;;
72573;SDS011;60603;52.548;13.420;2022-09-17T04:30:36;6.85;;;2.90;;
72573;SDS011;60603;52.548;13.420;2022-09-17T04:33:02;9.60;;;2.80;;
72573;SDS011;60603;52.548;13.420;2022-09-17T04:35:29;8.27;;;2.42;;
72573;SDS011;60603;52.548;13.420;2022-09-17T04:37:55;11.07;;;2.72;;
72573;SDS011;60603;52.548;13.420;2022-09-17T04:40:22;8.55;;;2.55;;
72573;SDS011;60603;52.548;13.420;2022-09-17T04:42:58;10.75;;;2.75;;
72573;SDS011;60603;52.548;13.420;2022-09-17T04:45:24;11.70;;;2.42;;
72573;SDS011;60603;52.548;13.420;2022-09-17T04:47:50;6.25;;;2.10;;
72573;SDS011;60603;52.548;13.420;2022-09-17T04:50:19;10.75;;;2.03;;
72573;SDS011;60603;52.548;13.420;2022-09-17T04:52:45;9.98;;;2.97;;
72573;SDS011;60603;52.548;13.420;2022-09-17T04:55:13;8.48;;;2.45;;
72573;SDS011;60603;52.548;13.420;2022-09-17T04:57:44;9.10;;;2.47;;
72573;SDS011;60603;52.548;13.420;2022-09-17T05:00:11;9.63;;;2.13;;
72573;SDS011;60603;52.548;13.420;2022-09-17T05:02:37;9.02;;;2.28;;
72573;SDS011;60603;52.548;13.420;2022-09-17T05:05:03;7.95;;;2.30;;
72573;SDS011;60603;52.548;13.420;2022-09-17T05:07:29;7.13;;;2.63;;
72573;SDS011;60603;52.548;13.420;2022-09-17T05:09:55;11.68;;;2.53;;
72573;SDS011;60603;52.548;13.420;2022-09-17T05:12:20;10.10;;;2.50;;
72573;SDS011;60603;52.548;13.420;2022-09-17T05:14:46;7.18;;;2.10;;
72573;SDS011;60603;52.548;13.420;2022-09-17T05:17:12;12.18;;;2.40;;
72573;SDS011;60603;52.548;13.420;2022-09-17T05:19:38;10.02;;;2.08;;
72573;SDS011;60603;52.548;13.420;2022-09-17T05:22:03;13.57;;;2.72;;
72573;SDS011;60603;52.548;13.420;2022-09-17T05:24:29;10.05;;;2.47;;
72573;SDS011;60603;52.548;13.420;2022-09-17T05:26:55;12.85;;;2.60;;
72573;SDS011;60603;52.548;13.420;2022-09-17T05:29:20;8.30;;;3.33;;
72573;SDS011;60603;52.548;13.420;2022-09-17T05:31:46;7.05;;;2.17;;
72573;SDS011;60603;52.548;13.420;2022-09-17T05:34:12;7.95;;;2.50;;
72573;SDS011;60603;52.548;13.420;2022-09-17T05:36:38;7.30;;;1.92;;
72573;SDS011;60603;52.548;13.420;2022-09-17T05:39:04;13.55;;;2.38;;
72573;SDS011;60603;52.548;13.420;2022-09-17T05:41:29;6.53;;;2.00;;
72573;SDS011;60603;52.548;13.420;2022-09-17T05:43:55;8.20;;;2.28;;
72573;SDS011;60603;52.548;13.420;2022-09-17T05:46:21;8.73;;;2.97;;
72573;SDS011;60603;52.548;13.420;2022-09-17T05:48:46;9.02;;;2.40;;
72573;SDS011;60603;52.548;13.420;2022-09-17T05:51:12;12.10;;;3.55;;
72573;SDS011;60603;52.548;13.420;2022-09-17T05:53:38;8.77;;;2.78;;
72573;SDS011;60603;52.548;13.420;2022-09-17T05:56:03;7.85;;;1.90;;
72573;SDS011;60603;52.548;13.420;2022-09-17T05:58:29;8.52;;;2.70;;
72573;SDS011;60603;52.548;13.420;2022-09-17T06:01:00;8.82;;;2.30;;
72573;SDS011;60603;52.548;13.420;2022-09-17T06:03:26;7.22;;;2.22;;
72573;SDS011;60603;52.548;13.420;2022-09-17T06:05:58;10.75;;;2.10;;
72573;SDS011;60603;52.548;13.420;2022-09-17T06:08:25;12.93;;;2.53;;
72573;SDS011;60603;52.548;13.420;2022-09-17T06:10:52;9.20;;;2.80;;
72573;SDS011;60603;52.548;13.420;2022-09-17T06:13:18;10.18;;;2.80;;
72573;SDS011;60603;52.548;13.420;2022-09-17T06:15:48;12.25;;;3.00;;
72573;SDS011;60603;52.548;13.420;2022-09-17T06:18:15;12.10;;;2.63;;
72573;SDS011;60603;52.548;13.420;2022-09-17T06:20:40;11.85;;;2.88;;
72573;SDS011;60603;52.548;13.420;2022-09-17T06:23:06;13.25;;;2.60;;
72573;SDS011;60603;52.548;13.420;2022-09-17T06:25:32;9.15;;;2.83;;
72573;SDS011;60603;52.548;13.420;2022-09-17T06:28:01;11.68;;;2.78;;
72573;SDS011;60603;52.548;13.420;2022-09-17T06:30:27;10.05;;;2.75;;
72573;SDS011;60603;52.548;13.420;2022-09-17T06:32:53;11.80;;;2.65;;
72573;SDS011;60603;52.548;13.420;2022-09-17T06:35:18;10.05;;;2.55;;
72573;SDS011;60603;52.548;13.420;2022-09-17T06:37:44;14.90;;;4.50;;
72573;SDS011;60603;52.548;13.420;2022-09-17T06:40:10;12.60;;;3.30;;
72573;SDS011;60603;52.548;13.420;2022-09-17T06:42:35;12.30;;;2.97;;
72573;SDS011;60603;52.548;13.420;2022-09-17T06:45:03;14.68;;;2.97;;
72573;SDS011;60603;52.548;13.420;2022-09-17T06:47:29;11.93;;;3.13;;
72573;SDS011;60603;52.548;13.420;2022-09-17T06:49:54;14.38;;;3.42;;
72573;SDS011;60603;52.548;13.420;2022-09-17T06:52:21;8.38;;;2.72;;
72573;SDS011;60603;52.548;13.420;2022-09-17T06:54:47;15.45;;;3.78;;
72573;SDS011;60603;52.548;13.420;2022-09-17T06:57:13;7.82;;;2.63;;
72573;SDS011;60603;52.548;13.420;2022-09-17T06:59:38;11.73;;;2.80;;
72573;SDS011;60603;52.548;13.420;2022-09-17T07:02:04;11.68;;;3.20;;
72573;SDS011;60603;52.548;13.420;2022-09-17T07:04:30;12.52;;;3.08;;
72573;SDS011;60603;52.548;13.420;2022-09-17T07:06:56;9.18;;;2.90;;
72573;SDS011;60603;52.548;13.420;2022-09-17T07:09:21;13.15;;;3.20;;
72573;SDS011;60603;52.548;13.420;2022-09-17T07:11:47;15.18;;;3.20;;
72573;SDS011;60603;52.548;13.420;2022-09-17T07:14:13;12.77;;;3.40;;
72573;SDS011;60603;52.548;13.420;2022-09-17T07:16:39;11.15;;;3.03;;
72573;SDS011;60603;52.548;13.420;2022-09-17T07:19:04;13.70;;;3.03;;
72573;SDS011;60603;52.548;13.420;2022-09-17T07:21:30;12.23;;;2.95;;
72573;SDS011;60603;52.548;13.420;2022-09-17T07:23:56;16.13;;;3.38;;
72573;SDS011;60603;52.548;13.420;2022-09-17T07:26:22;13.40;;;2.50;;
72573;SDS011;60603;52.548;13.420;2022-09-17T07:28:47;8.52;;;2.58;;
72573;SDS011;60603;52.548;13.420;2022-09-17T07:31:13;15.15;;;2.83;;
72573;SDS011;60603;52.548;13.420;2022-09-17T07:33:39;11.10;;;2.70;;
72573;SDS011;60603;52.548;13.420;2022-09-17T07:36:12;8.15;;;2.45;;
72573;SDS011;60603;52.548;13.420;2022-09-17T07:38:39;11.40;;;2.53;;
72573;SDS011;60603;52.548;13.420;2022-09-17T07:41:06;10.10;;;2.50;;
72573;SDS011;60603;52.548;13.420;2022-09-17T07:43:39;13.88;;;2.92;;
72573;SDS011;60603;52.548;13.420;2022-09-17T07:46:05;11.95;;;3.05;;
72573;SDS011;60603;52.548;13.420;2022-09-17T07:48:32;12.55;;;2.42;;
72573;SDS011;60603;52.548;13.420;2022-09-17T07:50:59;18.77;;;2.70;;
72573;SDS011;60603;52.548;13.420;2022-09-17T07:53:24;11.43;;;2.42;;
72573;SDS011;60603;52.548;13.420;2022-09-17T07:58:21;10.52;;;2.03;;
72573;SDS011;60603;52.548;13.420;2022-09-17T08:00:58;14.88;;;2.60;;
72573;SDS011;60603;52.548;13.420;2022-09-17T08:03:24;8.77;;;2.25;;
72573;SDS011;60603;52.548;13.420;2022-09-17T08:05:50;15.73;;;2.25;;
72573;SDS011;60603;52.548;13.420;2022-09-17T08:08:15;12.73;;;2.50;;
72573;SDS011;60603;52.548;13.420;2022-09-17T08:10:41;10.77;;;3.17;;
72573;SDS011;60603;52.548;13.420;2022-09-17T08:13:07;12.38;;;2.50;;
72573;SDS011;60603;52.548;13.420;2022-09-17T08:15:33;6.70;;;1.92;;
72573;SDS011;60603;52.548;13.420;2022-09-17T08:17:58;10.68;;;2.13;;
72573;SDS011;60603;52.548;13.420;2022-09-17T08:20:24;11.60;;;2.13;;
72573;SDS011;60603;52.548;13.420;2022-09-17T08:22:56;9.00;;;2.17;;
72573;SDS011;60603;52.548;13.420;2022-09-17T08:25:23;9.27;;;2.35;;
72573;SDS011;60603;52.548;13.420;2022-09-17T08:27:52;15.45;;;2.53;;
72573;SDS011;60603;52.548;13.420;2022-09-17T08:30:18;9.48;;;3.13;;
72573;SDS011;60603;52.548;13.420;2022-09-17T08:32:44;8.55;;;1.92;;
72573;SDS011;60603;52.548;13.420;2022-09-17T08:35:10;11.38;;;2.47;;
72573;SDS011;60603;52.548;13.420;2022-09-17T08:37:36;8.88;;;2.10;;
72573;SDS011;60603;52.548;13.420;2022-09-17T08:40:02;9.13;;;2.40;;
72573;SDS011;60603;52.548;13.420;2022-09-17T08:45:33;11.13;;;2.22;;
72573;SDS011;60603;52.548;13.420;2022-09-17T08:48:02;11.32;;;2.10;;
72573;SDS011;60603;52.548;13.420;2022-09-17T08:50:34;10.95;;;2.25;;
72573;SDS011;60603;52.548;13.420;2022-09-17T08:53:15;8.43;;;2.33;;
72573;SDS011;60603;52.548;13.420;2022-09-17T08:59:21;7.60;;;2.20;;
72573;SDS011;60603;52.548;13.420;2022-09-17T09:01:58;8.38;;;1.73;;
72573;SDS011;60603;52.548;13.420;2022-09-17T09:06:58;7.80;;;1.90;;
72573;SDS011;60603;52.548;13.420;2022-09-17T09:09:27;9.60;;;2.47;;
72573;SDS011;60603;52.548;13.420;2022-09-17T09:11:59;8.48;;;2.08;;
72573;SDS011;60603;52.548;13.420;2022-09-17T09:14:40;8.20;;;1.80;;
72573;SDS011;60603;52.548;13.420;2022-09-17T09:17:13;7.10;;;2.00;;
72573;SDS011;60603;52.548;13.420;2022-09-17T09:19:42;5.88;;;1.48;;
72573;SDS011;60603;52.548;13.420;2022-09-17T09:24:39;9.70;;;2.00;;
72573;SDS011;60603;52.548;13.420;2022-09-17T09:32:39;7.32;;;1.92;;
72573;SDS011;60603;52.548;13.420;2022-09-17T09:37:55;7.15;;;1.67;;
72573;SDS011;60603;52.548;13.420;2022-09-17T09:40:46;11.73;;;2.10;;
72573;SDS011;60603;52.548;13.420;2022-09-17T09:43:44;7.82;;;2.00;;
72573;SDS011;60603;52.548;13.420;2022-09-17T09:57:21;8.38;;;1.85;;
72573;SDS011;60603;52.548;13.420;2022-09-17T10:00:23;10.80;;;2.75;;
72573;SDS011;60603;52.548;13.420;2022-09-17T10:02:55;11.25;;;2.10;;
72573;SDS011;60603;52.548;13.420;2022-09-17T10:05:24;8.25;;;1.90;;
72573;SDS011;60603;52.548;13.420;2022-09-17T10:07:49;8.02;;;1.73;;
72573;SDS011;60603;52.548;13.420;2022-09-17T10:10:15;9.80;;;2.25;;
72573;SDS011;60603;52.548;13.420;2022-09-17T10:12:41;9.13;;;1.83;;
72573;SDS011;60603;52.548;13.420;2022-09-17T10:15:21;6.85;;;1.65;;
72573;SDS011;60603;52.548;13.420;2022-09-17T10:18:11;8.05;;;1.85;;
72573;SDS011;60603;52.548;13.420;2022-09-17T10:25:41;8.80;;;1.60;;
72573;SDS011;60603;52.548;13.420;2022-09-17T10:28:23;9.82;;;2.58;;
72573;SDS011;60603;52.548;13.420;2022-09-17T10:31:09;5.35;;;1.67;;
72573;SDS011;60603;52.548;13.420;2022-09-17T10:33:39;7.95;;;1.77;;
72573;SDS011;60603;52.548;13.420;2022-09-17T10:36:36;7.55;;;1.70;;
72573;SDS011;60603;52.548;13.420;2022-09-17T10:39:46;9.48;;;1.75;;
72573;SDS011;60603;52.548;13.420;2022-09-17T10:42:31;7.45;;;1.70;;
72573;SDS011;60603;52.548;13.420;2022-09-17T10:44:54;9.32;;;2.70;;
72573;SDS011;60603;52.548;13.420;2022-09-17T10:47:25;6.28;;;1.92;;
72573;SDS011;60603;52.548;13.420;2022-09-17T10:49:55;12.20;;;2.10;;
72573;SDS011;60603;52.548;13.420;2022-09-17T10:52:25;10.45;;;1.80;;
72573;SDS011;60603;52.548;13.420;2022-09-17T10:55:02;13.20;;;2.13;;
72573;SDS011;60603;52.548;13.420;2022-09-17T11:00:12;11.30;;;2.75;;
72573;SDS011;60603;52.548;13.420;2022-09-17T11:05:33;8.07;;;1.75;;
72573;SDS011;60603;52.548;13.420;2022-09-17T11:08:07;7.93;;;1.80;;
72573;SDS011;60603;52.548;13.420;2022-09-17T11:10:50;7.78;;;1.85;;
72573;SDS011;60603;52.548;13.420;2022-09-17T11:13:39;8.10;;;1.80;;
72573;SDS011;60603;52.548;13.420;2022-09-17T11:21:32;6.10;;;1.35;;
72573;SDS011;60603;52.548;13.420;2022-09-17T11:24:24;5.43;;;1.35;;
72573;SDS011;60603;52.548;13.420;2022-09-17T11:35:23;6.13;;;1.92;;
72573;SDS011;60603;52.548;13.420;2022-09-17T11:37:54;8.10;;;1.60;;
72573;SDS011;60603;52.548;13.420;2022-09-17T11:40:24;6.30;;;1.90;;
72573;SDS011;60603;52.548;13.420;2022-09-17T11:43:43;5.57;;;1.52;;
72573;SDS011;60603;52.548;13.420;2022-09-17T11:48:38;10.95;;;3.90;;
72573;SDS011;60603;52.548;13.420;2022-09-17T11:51:20;8.73;;;1.73;;
72573;SDS011;60603;52.548;13.420;2022-09-17T11:53:58;7.40;;;2.50;;
72573;SDS011;60603;52.548;13.420;2022-09-17T11:56:27;8.07;;;1.80;;
72573;SDS011;60603;52.548;13.420;2022-09-17T11:59:07;7.47;;;1.50;;
72573;SDS011;60603;52.548;13.420;2022-09-17T12:01:53;7.25;;;2.20;;
72573;SDS011;60603;52.548;13.420;2022-09-17T12:04:33;5.38;;;1.67;;
72573;SDS011;60603;52.548;13.420;2022-09-17T12:07:13;7.13;;;1.65;;
72573;SDS011;60603;52.548;13.420;2022-09-17T12:09:52;7.60;;;2.20;;
72573;SDS011;60603;52.548;13.420;2022-09-17T12:12:24;5.50;;;1.38;;
72573;SDS011;60603;52.548;13.420;2022-09-17T12:17:55;5.45;;;1.30;;
72573;SDS011;60603;52.548;13.420;2022-09-17T12:20:46;6.20;;;1.40;;
72573;SDS011;60603;52.548;13.420;2022-09-17T12:23:15;7.78;;;1.60;;
72573;SDS011;60603;52.548;13.420;2022-09-17T12:26:02;6.35;;;1.35;;
72573;SDS011;60603;52.548;13.420;2022-09-17T12:29:13;6.60;;;1.00;;
72573;SDS011;60603;52.548;13.420;2022-09-17T12:54:36;5.55;;;1.33;;
72573;SDS011;60603;52.548;13.420;2022-09-17T13:02:45;6.60;;;1.15;;
72573;SDS011;60603;52.548;13.420;2022-09-17T13:08:17;6.10;;;1.42;;
72573;SDS011;60603;52.548;13.420;2022-09-17T13:13:54;6.20;;;1.20;;
72573;SDS011;60603;52.548;13.420;2022-09-17T13:16:45;6.85;;;2.17;;
72573;SDS011;60603;52.548;13.420;2022-09-17T13:22:16;5.82;;;1.45;;
72573;SDS011;60603;52.548;13.420;2022-09-17T13:24:46;5.50;;;1.00;;
72573;SDS011;60603;52.548;13.420;2022-09-17T13:27:26;5.97;;;1.17;;
72573;SDS011;60603;52.548;13.420;2022-09-17T13:37:31;6.07;;;1.33;;
72573;SDS011;60603;52.548;13.420;2022-09-17T13:39:58;4.38;;;1.00;;
72573;SDS011;60603;52.548;13.420;2022-09-17T13:42:24;5.38;;;1.40;;
72573;SDS011;60603;52.548;13.420;2022-09-17T13:47:32;4.75;;;1.20;;
72573;SDS011;60603;52.548;13.420;2022-09-17T13:50:00;4.80;;;1.30;;
72573;SDS011;60603;52.548;13.420;2022-09-17T13:55:38;4.60;;;1.02;;
72573;SDS011;60603;52.548;13.420;2022-09-17T13:58:05;5.28;;;1.23;;
72573;SDS011;60603;52.548;13.420;2022-09-17T14:05:53;2.25;;;0.85;;
72573;SDS011;60603;52.548;13.420;2022-09-17T14:08:29;4.95;;;1.40;;
72573;SDS011;60603;52.548;13.420;2022-09-17T14:10:57;4.72;;;1.05;;
72573;SDS011;60603;52.548;13.420;2022-09-17T14:16:00;5.38;;;1.20;;
72573;SDS011;60603;52.548;13.420;2022-09-17T14:21:34;3.55;;;1.00;;
72573;SDS011;60603;52.548;13.420;2022-09-17T14:23:50;6.70;;;1.38;;
72573;SDS011;60603;52.548;13.420;2022-09-17T14:31:40;6.18;;;1.58;;
72573;SDS011;60603;52.548;13.420;2022-09-17T14:34:10;3.70;;;1.10;;
72573;SDS011;60603;52.548;13.420;2022-09-17T14:36:44;5.55;;;1.40;;
72573;SDS011;60603;52.548;13.420;2022-09-17T14:39:12;3.60;;;0.95;;
72573;SDS011;60603;52.548;13.420;2022-09-17T14:41:44;4.22;;;1.20;;
72573;SDS011;60603;52.548;13.420;2022-09-17T14:44:18;5.57;;;1.40;;
72573;SDS011;60603;52.548;13.420;2022-09-17T14:47:05;5.03;;;1.08;;
72573;SDS011;60603;52.548;13.420;2022-09-17T14:49:36;1.92;;;0.75;;
72573;SDS011;60603;52.548;13.420;2022-09-17T14:52:24;6.10;;;1.30;;
72573;SDS011;60603;52.548;13.420;2022-09-17T14:57:52;3.67;;;0.90;;
72573;SDS011;60603;52.548;13.420;2022-09-17T15:00:40;6.75;;;1.42;;
72573;SDS011;60603;52.548;13.420;2022-09-17T15:03:05;2.78;;;0.70;;
72573;SDS011;60603;52.548;13.420;2022-09-17T15:05:32;2.92;;;0.80;;
72573;SDS011;60603;52.548;13.420;2022-09-17T15:08:10;3.08;;;0.90;;
72573;SDS011;60603;52.548;13.420;2022-09-17T15:10:50;1.60;;;0.60;;
72573;SDS011;60603;52.548;13.420;2022-09-17T15:13:34;2.13;;;0.70;;
72573;SDS011;60603;52.548;13.420;2022-09-17T15:16:05;2.28;;;0.52;;
72573;SDS011;60603;52.548;13.420;2022-09-17T15:18:39;1.17;;;0.43;;
72573;SDS011;60603;52.548;13.420;2022-09-17T15:21:52;5.25;;;1.38;;
72573;SDS011;60603;52.548;13.420;2022-09-17T15:24:11;1.30;;;0.30;;
72573;SDS011;60603;52.548;13.420;2022-09-17T15:26:43;3.15;;;0.80;;
72573;SDS011;60603;52.548;13.420;2022-09-17T15:29:13;1.45;;;0.65;;
72573;SDS011;60603;52.548;13.420;2022-09-17T15:31:39;2.30;;;0.68;;
72573;SDS011;60603;52.548;13.420;2022-09-17T15:34:05;4.43;;;0.70;;
72573;SDS011;60603;52.548;13.420;2022-09-17T15:36:37;4.97;;;0.90;;
72573;SDS011;60603;52.548;13.420;2022-09-17T15:39:27;4.45;;;0.80;;
72573;SDS011;60603;52.548;13.420;2022-09-17T15:41:56;5.00;;;0.93;;
72573;SDS011;60603;52.548;13.420;2022-09-17T15:44:22;1.40;;;0.50;;
72573;SDS011;60603;52.548;13.420;2022-09-17T15:46:50;2.17;;;0.80;;
72573;SDS011;60603;52.548;13.420;2022-09-17T15:49:29;2.60;;;0.70;;
72573;SDS011;60603;52.548;13.420;2022-09-17T15:55:04;2.42;;;0.77;;
72573;SDS011;60603;52.548;13.420;2022-09-17T15:57:30;1.95;;;0.60;;
72573;SDS011;60603;52.548;13.420;2022-09-17T16:00:12;2.63;;;0.80;;
72573;SDS011;60603;52.548;13.420;2022-09-17T16:02:39;1.52;;;0.77;;
72573;SDS011;60603;52.548;13.420;2022-09-17T16:05:41;4.57;;;0.70;;
72573;SDS011;60603;52.548;13.420;2022-09-17T16:08:19;1.90;;;0.50;;
72573;SDS011;60603;52.548;13.420;2022-09-17T16:13:11;2.03;;;0.90;;
72573;SDS011;60603;52.548;13.420;2022-09-17T16:15:37;1.85;;;0.77;;
72573;SDS011;60603;52.548;13.420;2022-09-17T16:18:03;3.08;;;0.82;;
72573;SDS011;60603;52.548;13.420;2022-09-17T16:20:29;3.03;;;0.98;;
72573;SDS011;60603;52.548;13.420;2022-09-17T16:22:55;4.05;;;1.23;;
72573;SDS011;60603;52.548;13.420;2022-09-17T16:25:24;5.32;;;0.70;;
72573;SDS011;60603;52.548;13.420;2022-09-17T16:28:10;1.95;;;0.70;;
72573;SDS011;60603;52.548;13.420;2022-09-17T16:30:39;1.95;;;0.70;;
72573;SDS011;60603;52.548;13.420;2022-09-17T16:33:08;3.08;;;1.00;;
72573;SDS011;60603;52.548;13.420;2022-09-17T16:35:35;3.47;;;0.90;;
72573;SDS011;60603;52.548;13.420;2022-09-17T16:38:02;3.58;;;1.25;;
72573;SDS011;60603;52.548;13.420;2022-09-17T16:40:28;3.15;;;0.90;;
72573;SDS011;60603;52.548;13.420;2022-09-17T16:42:54;2.28;;;0.70;;
72573;SDS011;60603;52.548;13.420;2022-09-17T16:45:20;3.83;;;1.00;;
72573;SDS011;60603;52.548;13.420;2022-09-17T16:47:46;5.53;;;0.88;;
72573;SDS011;60603;52.548;13.420;2022-09-17T16:50:12;4.68;;;1.30;;
72573;SDS011;60603;52.548;13.420;2022-09-17T16:52:39;3.13;;;0.77;;
72573;SDS011;60603;52.548;13.420;2022-09-17T16:55:05;3.92;;;1.25;;
72573;SDS011;60603;52.548;13.420;2022-09-17T16:57:32;4.82;;;1.00;;
72573;SDS011;60603;52.548;13.420;2022-09-17T16:59:58;3.28;;;0.68;;
72573;SDS011;60603;52.548;13.420;2022-09-17T17:02:24;3.00;;;1.00;;
72573;SDS011;60603;52.548;13.420;2022-09-17T17:04:50;4.60;;;1.30;;
72573;SDS011;60603;52.548;13.420;2022-09-17T17:07:15;3.78;;;1.20;;
72573;SDS011;60603;52.548;13.420;2022-09-17T17:09:41;3.42;;;0.85;;
72573;SDS011;60603;52.548;13.420;2022-09-17T17:12:07;4.63;;;1.10;;
72573;SDS011;60603;52.548;13.420;2022-09-17T17:14:32;2.92;;;0.90;;
72573;SDS011;60603;52.548;13.420;2022-09-17T17:16:58;4.28;;;1.40;;
72573;SDS011;60603;52.548;13.420;2022-09-17T17:19:24;5.78;;;1.30;;
72573;SDS011;60603;52.548;13.420;2022-09-17T17:21:51;5.18;;;1.23;;
72573;SDS011;60603;52.548;13.420;2022-09-17T17:24:17;4.15;;;1.15;;
72573;SDS011;60603;52.548;13.420;2022-09-17T17:26:43;3.35;;;1.20;;
72573;SDS011;60603;52.548;13.420;2022-09-17T17:29:09;5.80;;;1.25;;
72573;SDS011;60603;52.548;13.420;2022-09-17T17:31:35;6.05;;;1.17;;
72573;SDS011;60603;52.548;13.420;2022-09-17T17:34:00;5.38;;;0.95;;
72573;SDS011;60603;52.548;13.420;2022-09-17T17:36:26;4.15;;;1.02;;
72573;SDS011;60603;52.548;13.420;2022-09-17T17:38:55;4.35;;;1.02;;
72573;SDS011;60603;52.548;13.420;2022-09-17T17:41:21;4.38;;;1.20;;
72573;SDS011;60603;52.548;13.420;2022-09-17T17:43:54;4.95;;;1.10;;
72573;SDS011;60603;52.548;13.420;2022-09-17T17:46:20;2.80;;;1.23;;
72573;SDS011;60603;52.548;13.420;2022-09-17T17:48:47;4.15;;;1.20;;